Webster Springs, West Virginia
Current Conditions -  °F | °C
As of 11:15 AM on Saturday 25 Oct 2014 (Local Time) from KW22 Reporting Station
Overcast Overcast  
Wind Chill: 54°   Ceiling: 3700
Heat Index: 54°   Visibility: 10mi
Dew Point: 41°   Wind: 10mph
Humidity: 62%   Direction: 240°WSW
Pressure: 30.03"   Gusts: NA
Location:  38.48°N, 80.41°W
Report Text: KW22 251515Z AUTO 24009KT 10SM OVC037 12/05 A3003 RMK AO2
Loading
Personal Weather Stations






























Interactive Weather Map
Tropical Storm Tracking
New forecast layout! Learn more

10-Day Weather Forecast

Advertisements
Track Severe Weather on mobile